Time;durP1;ratioP1;P1;durP2;ratioP2;P2;SDS_P1;SDS_P2;PMS_P1;PMS_P2;Temp;Humidity;BMP_temperature;BMP_pressure;BME280_temperature;BME280_humidity;BME280_pressure;Samples;Min_cycle;Max_cycle;Signal;HPM_P1;HPM_P2
2021/09/01 00:01:12;;;;;;;5.70;5.10;;;;;;;23.25;45.93;94471.69;834153;71;28608;-80
2021/09/01 00:16:25;;;;;;;6.00;5.40;;;;;;;23.18;46.14;94482.34;834255;71;29066;-79
2021/09/01 00:31:23;;;;;;;5.30;4.90;;;;;;;23.17;46.66;94501.64;834189;71;29352;-81
2021/09/01 00:46:23;;;;;;;5.17;4.77;;;;;;;23.23;46.67;94520.05;829473;71;28655;-81
2021/09/01 01:01:18;;;;;;;5.03;4.63;;;;;;;23.20;46.42;94520.99;830041;71;28651;-79
2021/09/01 01:16:17;;;;;;;4.40;4.10;;;;;;;23.13;45.22;94523.59;834215;71;29458;-79
2021/09/01 01:31:19;;;;;;;4.10;3.90;;;;;;;23.08;44.67;94525.27;835086;71;31739;-80
2021/09/01 01:46:16;;;;;;;4.17;3.87;;;;;;;23.16;44.30;94516.75;827677;71;31720;-78
2021/09/01 02:01:25;;;;;;;3.77;3.47;;;;;;;23.10;44.45;94499.48;834071;71;29199;-80
2021/09/01 02:16:22;;;;;;;4.33;4.03;;;;;;;22.98;44.77;94493.78;828263;71;29245;-80
2021/09/01 02:31:38;;;;;;;4.37;4.07;;;;;;;23.09;44.65;94493.33;828088;71;31062;-82
2021/09/01 02:46:16;;;;;;;4.80;4.50;;;;;;;23.04;44.88;94500.38;828346;71;28657;-84
2021/09/01 03:16:14;;;;;;;5.20;4.80;;;;;;;22.93;45.43;94508.81;827494;71;32702;-82
2021/09/01 03:31:14;;;;;;;9.77;5.50;;;;;;;22.79;46.23;94501.42;827478;71;32663;-81
2021/09/01 03:46:08;;;;;;;4.93;4.63;;;;;;;22.84;46.15;94535.87;834285;71;29703;-79
2021/09/01 04:01:10;;;;;;;5.63;5.20;;;;;;;22.85;46.13;94545.45;828288;71;30418;-81
2021/09/01 04:16:08;;;;;;;6.40;5.90;;;;;;;23.39;44.88;94537.42;834109;71;29718;-81
2021/09/01 04:31:23;;;;;;;6.47;5.97;;;;;;;23.92;44.45;94544.39;828008;71;30776;-80
2021/09/01 04:46:26;;;;;;;6.33;5.83;;;;;;;24.47;44.82;94545.51;827306;71;32831;-77
2021/09/01 05:01:28;;;;;;;6.00;5.50;;;;;;;25.06;43.02;94556.92;829133;71;32745;-78
2021/09/01 05:16:22;;;;;;;10.60;9.60;;;;;;;25.54;42.62;94563.95;827359;71;32780;-81
2021/09/01 05:31:20;;;;;;;6.23;5.83;;;;;;;25.39;42.01;94573.34;827955;71;32641;-76
2021/09/01 05:46:11;;;;;;;4.93;4.63;;;;;;;25.71;40.92;94567.25;834679;71;30179;-75
2021/09/01 06:01:26;;;;;;;4.27;3.97;;;;;;;26.10;39.89;94574.58;828405;71;29739;-81
2021/09/01 06:16:26;;;;;;;4.30;4.00;;;;;;;26.56;39.36;94564.88;834099;71;32757;-81
2021/09/01 06:31:19;;;;;;;4.27;3.90;;;;;;;27.14;37.98;94566.82;824263;71;30231;-82
2021/09/01 06:32:23;;;;;;;4.23;3.93;;;;;;;27.13;37.68;94580.09;805960;73;26744;-82
2021/09/01 06:46:18;;;;;;;3.70;3.50;;;;;;;27.65;36.45;94580.22;828244;71;30318;-81
2021/09/01 07:01:31;;;;;;;4.30;3.90;;;;;;;28.07;36.02;94588.43;794361;74;30845;-81
2021/09/01 07:16:21;;;;;;;3.60;3.30;;;;;;;28.62;34.87;94592.95;823873;71;32706;-82
2021/09/01 07:31:11;;;;;;;3.53;3.33;;;;;;;28.98;33.94;94583.70;824115;71;30736;-83
2021/09/01 07:46:46;;;;;;;3.67;3.47;;;;;;;29.25;34.02;94586.48;834008;71;32820;-84
2021/09/01 08:01:26;;;;;;;3.33;3.10;;;;;;;29.46;34.07;94590.83;834069;71;32719;-83
2021/09/01 08:16:18;;;;;;;3.47;3.17;;;;;;;29.46;33.70;94597.02;831354;71;29503;-83
2021/09/01 08:31:23;;;;;;;3.17;2.87;;;;;;;29.91;32.91;94579.19;822918;71;27817;-77
2021/09/01 08:46:14;;;;;;;3.37;3.07;;;;;;;29.88;32.68;94577.30;827936;71;29632;-79
2021/09/01 09:16:15;;;;;;;4.73;3.70;;;;;;;29.94;33.18;94547.23;827295;71;31761;-81
2021/09/01 09:31:30;;;;;;;4.53;3.90;;;;;;;28.47;35.16;94530.80;827023;71;32765;-78
2021/09/01 09:46:31;;;;;;;4.60;4.20;;;;;;;27.42;36.65;94544.95;828213;71;31779;-77
2021/09/01 10:31:21;;;;;;;13.50;12.20;;;;;;;26.88;39.21;94542.50;828773;71;31764;-78
2021/09/01 11:31:23;;;;;;;4.33;3.50;;;;;;;27.27;33.88;94557.17;828102;71;29306;-77
2021/09/01 11:46:19;;;;;;;5.23;4.83;;;;;;;26.66;34.47;94565.45;828572;71;28786;-79
2021/09/01 12:01:21;;;;;;;6.87;6.37;;;;;;;26.35;34.07;94540.90;828387;71;31711;-76
2021/09/01 12:16:43;;;;;;;5.40;5.00;;;;;;;26.11;36.25;94557.27;780191;75;31913;-77
2021/09/01 12:46:47;;;;;;;5.77;5.30;;;;;;;25.32;37.02;94528.98;779846;75;31954;-79
2021/09/01 13:01:55;;;;;;;2.83;2.63;;;;;;;24.87;36.07;94510.25;779541;75;31940;-77
2021/09/01 13:32:07;;;;;;;4.87;4.53;;;;;;;24.67;38.42;94515.92;814084;72;31895;-78
2021/09/01 13:46:32;;;;;;;4.27;3.97;;;;;;;24.73;38.37;94518.44;835692;71;29316;-80
2021/09/01 14:01:18;;;;;;;3.90;3.70;;;;;;;24.47;38.19;94534.78;827161;71;31712;-79
2021/09/01 14:16:35;;;;;;;4.50;4.20;;;;;;;24.09;38.75;94548.94;795280;74;31875;-78
2021/09/01 14:46:27;;;;;;;7.20;6.50;;;;;;;23.28;40.50;94524.52;827322;71;32138;-77
2021/09/01 15:16:19;;;;;;;4.70;4.40;;;;;;;22.69;42.50;94542.97;833940;71;32271;-82
2021/09/01 15:31:19;;;;;;;5.30;4.70;;;;;;;22.55;42.00;94543.56;827146;71;32101;-80
2021/09/01 15:46:23;;;;;;;5.10;4.70;;;;;;;22.49;40.62;94538.32;833902;71;31711;-81
2021/09/01 16:01:18;;;;;;;7.20;6.60;;;;;;;22.35;41.03;94529.55;818900;71;31690;-76
2021/09/01 16:16:17;;;;;;;8.65;7.75;;;;;;;22.00;42.33;94523.88;833869;71;31548;-79
2021/09/01 16:31:30;;;;;;;6.42;5.83;;;;;;;21.58;44.36;94534.67;827269;71;31719;-78
2021/09/01 16:46:47;;;;;;;7.90;7.10;;;;;;;21.24;45.71;94543.02;766182;76;32241;-79
2021/09/01 17:01:21;;;;;;;7.17;6.47;;;;;;;21.33;45.79;94547.02;825666;71;29369;-77
2021/09/01 17:16:38;;;;;;;6.80;6.20;;;;;;;20.80;46.50;94575.58;822304;71;32295;-76
2021/09/01 18:31:29;;;;;;;5.93;5.43;;;;;;;23.52;42.95;94677.23;835284;71;31662;-79
2021/09/01 18:46:17;;;;;;;7.35;6.62;;;;;;;21.63;43.98;94685.83;834056;71;28721;-76
2021/09/01 19:01:49;;;;;;;7.10;6.37;;;;;;;20.51;45.67;94712.03;800911;74;32229;-75
2021/09/01 19:16:14;;;;;;;5.67;5.17;;;;;;;19.85;46.61;94721.44;823214;71;28694;-77
2021/09/01 19:31:24;;;;;;;6.30;5.70;;;;;;;19.41;47.49;94718.17;820943;71;31832;-77
2021/09/01 19:46:14;;;;;;;6.12;5.53;;;;;;;19.10;47.78;94730.23;820671;71;32701;-79
2021/09/01 20:01:30;;;;;;;6.17;5.60;;;;;;;18.82;48.26;94747.44;822167;71;32694;-83
2021/09/01 20:16:44;;;;;;;6.47;5.33;;;;;;;18.63;48.64;94746.62;827489;71;32630;-78
2021/09/01 20:31:34;;;;;;;6.28;5.33;;;;;;;18.41;49.29;94753.16;827021;71;32690;-75
2021/09/01 20:46:24;;;;;;;6.10;5.60;;;;;;;18.26;50.08;94773.72;827552;71;32749;-78
2021/09/01 21:16:17;;;;;;;6.42;5.47;;;;;;;17.93;50.83;94762.02;827132;71;32738;-78
2021/09/01 21:31:12;;;;;;;5.72;5.22;;;;;;;17.86;51.15;94764.98;828070;71;30274;-80
2021/09/01 21:46:08;;;;;;;6.05;5.28;;;;;;;17.71;51.21;94777.72;828213;71;29807;-76
2021/09/01 22:01:08;;;;;;;5.70;5.25;;;;;;;17.59;51.41;94790.94;828931;71;30332;-78
2021/09/01 22:16:15;;;;;;;6.75;5.92;;;;;;;17.43;51.87;94788.86;833832;71;32681;-76
2021/09/01 22:31:21;;;;;;;5.85;4.95;;;;;;;17.26;52.36;94797.52;833941;71;29886;-78
2021/09/01 22:46:26;;;;;;;6.50;5.80;;;;;;;17.14;53.10;94796.88;828192;71;33194;-79
2021/09/01 23:01:17;;;;;;;7.47;6.00;;;;;;;16.99;54.01;94802.17;828176;71;30218;-79
2021/09/01 23:16:15;;;;;;;6.97;6.28;;;;;;;16.94;55.15;94804.46;828554;71;29687;-77
2021/09/01 23:31:12;;;;;;;6.75;6.05;;;;;;;16.85;55.81;94786.52;828454;71;29653;-77
2021/09/01 23:46:11;;;;;;;7.95;6.60;;;;;;;16.77;56.22;94785.42;828132;71;30384;-76
